createdAt,value
2017-12-12T00:00:34.703Z,28.10
2017-12-12T00:03:02.124Z,27.80
2017-12-12T00:05:29.572Z,27.90
2017-12-12T00:07:57.002Z,27.70
2017-12-12T00:10:24.427Z,27.60
2017-12-12T00:12:51.860Z,27.80
2017-12-12T00:15:19.295Z,27.30
2017-12-12T00:17:46.728Z,27.40
2017-12-12T00:20:14.153Z,27.70
2017-12-12T00:22:43.173Z,27.00
2017-12-12T00:25:10.658Z,27.00
2017-12-12T00:27:38.035Z,27.00
2017-12-12T00:30:06.345Z,26.70
2017-12-12T00:32:34.547Z,26.60
2017-12-12T00:35:01.983Z,26.60
2017-12-12T00:37:29.422Z,26.40
2017-12-12T00:39:56.852Z,26.60
2017-12-12T00:42:24.280Z,26.60
2017-12-12T00:44:51.715Z,27.00
2017-12-12T00:47:19.161Z,27.00
2017-12-12T00:49:46.609Z,27.20
2017-12-12T00:52:14.817Z,27.90
2017-12-12T00:54:42.250Z,27.90
2017-12-12T00:57:09.676Z,27.70
2017-12-12T00:59:37.112Z,28.20
2017-12-12T01:02:04.538Z,27.90
2017-12-12T01:04:31.983Z,27.30
2017-12-12T01:06:59.411Z,26.50
2017-12-12T01:09:27.616Z,26.50
2017-12-12T01:11:55.053Z,26.40
2017-12-12T01:14:22.488Z,26.20
2017-12-12T01:16:49.908Z,25.70
2017-12-12T01:19:17.341Z,26.30
2017-12-12T01:21:44.768Z,26.10
2017-12-12T01:24:12.210Z,26.80
2017-12-12T01:26:40.432Z,26.40
2017-12-12T01:29:07.845Z,26.40
2017-12-12T01:31:36.046Z,29.70
2017-12-12T01:34:03.472Z,29.70
2017-12-12T01:36:30.896Z,30.20
2017-12-12T01:38:58.341Z,31.50
2017-12-12T01:41:25.818Z,28.70
2017-12-12T01:43:53.194Z,28.70
2017-12-12T01:46:21.401Z,29.50
2017-12-12T01:48:48.829Z,29.50
2017-12-12T01:51:16.260Z,27.40
2017-12-12T01:53:43.684Z,27.10
2017-12-12T01:56:11.134Z,26.30
2017-12-12T01:58:38.557Z,25.90
2017-12-12T02:01:06.758Z,28.20
2017-12-12T02:03:34.181Z,28.20
2017-12-12T02:06:01.617Z,28.20
2017-12-12T02:08:29.032Z,28.20
2017-12-12T02:10:56.471Z,27.50
2017-12-12T02:13:23.892Z,27.70
2017-12-12T02:15:51.333Z,28.00
2017-12-12T02:18:18.762Z,28.70
2017-12-12T02:20:46.189Z,28.70
2017-12-12T02:23:13.625Z,29.40
2017-12-12T02:25:41.814Z,29.30
2017-12-12T02:28:09.251Z,29.30
2017-12-12T02:30:36.670Z,29.50
2017-12-12T02:33:04.092Z,29.90
2017-12-12T02:35:31.516Z,30.20
2017-12-12T02:37:59.716Z,30.30
2017-12-12T02:40:27.143Z,30.20
2017-12-12T02:42:54.581Z,31.30
2017-12-12T02:45:21.997Z,32.20
2017-12-12T02:47:49.434Z,33.50
2017-12-12T02:50:16.865Z,33.00
2017-12-12T02:52:44.298Z,33.90
2017-12-12T02:55:11.724Z,33.00
2017-12-12T02:57:39.161Z,33.60
2017-12-12T03:00:06.569Z,33.70
2017-12-12T03:02:33.986Z,34.80
2017-12-12T03:05:01.429Z,34.30
2017-12-12T03:07:28.849Z,32.20
2017-12-12T03:09:56.279Z,32.50
2017-12-12T03:12:23.705Z,32.90
2017-12-12T03:14:51.142Z,33.10
2017-12-12T03:17:19.325Z,33.70
2017-12-12T03:19:46.752Z,33.50
2017-12-12T03:22:14.182Z,33.90
2017-12-12T03:24:41.613Z,33.80
2017-12-12T03:27:09.032Z,34.80
2017-12-12T03:29:37.237Z,35.70
2017-12-12T03:32:04.667Z,35.60
2017-12-12T03:34:32.095Z,36.30
2017-12-12T03:36:59.507Z,36.90
2017-12-12T03:39:26.948Z,36.30
2017-12-12T03:41:54.373Z,36.50
2017-12-12T03:44:22.560Z,36.70
2017-12-12T03:46:49.993Z,36.60
2017-12-12T03:49:17.416Z,36.70
2017-12-12T03:51:44.847Z,36.00
2017-12-12T03:54:12.260Z,36.10
2017-12-12T03:56:39.692Z,35.50
2017-12-12T03:59:07.110Z,35.10
2017-12-12T04:01:34.557Z,34.50
2017-12-12T04:04:01.982Z,33.80
2017-12-12T04:06:29.418Z,33.80
2017-12-12T04:08:56.842Z,32.90
2017-12-12T04:11:24.276Z,33.70
2017-12-12T04:13:51.692Z,32.30
2017-12-12T04:16:19.115Z,32.80
2017-12-12T04:18:46.541Z,31.90
2017-12-12T04:21:14.749Z,31.90
2017-12-12T04:23:42.165Z,31.90
2017-12-12T04:26:09.576Z,31.90
2017-12-12T04:28:37.008Z,31.70
2017-12-12T04:31:04.420Z,31.90
2017-12-12T04:33:32.620Z,31.00
2017-12-12T04:36:00.041Z,30.90
2017-12-12T04:38:27.480Z,30.30
2017-12-12T04:40:54.893Z,30.40
2017-12-12T04:43:22.325Z,30.90
2017-12-12T04:45:50.512Z,30.70
2017-12-12T04:48:17.941Z,30.70
2017-12-12T04:50:45.365Z,30.00
2017-12-12T04:53:12.792Z,30.60
2017-12-12T04:55:40.220Z,30.00
2017-12-12T04:58:08.409Z,29.60
2017-12-12T05:00:35.833Z,29.50
2017-12-12T05:03:03.303Z,30.00
2017-12-12T05:05:30.721Z,28.80
2017-12-12T05:07:58.148Z,29.40
2017-12-12T05:10:25.569Z,29.10
2017-12-12T05:12:53.778Z,29.30
2017-12-12T05:15:21.212Z,29.40
2017-12-12T05:17:48.635Z,29.20
2017-12-12T05:20:16.217Z,28.70
2017-12-12T05:22:43.649Z,28.70
2017-12-12T05:25:11.072Z,28.50
2017-12-12T05:27:38.501Z,28.70
2017-12-12T05:30:05.935Z,29.10
2017-12-12T05:32:33.356Z,28.30
2017-12-12T05:35:00.817Z,28.30
2017-12-12T05:37:28.237Z,28.60
2017-12-12T05:39:55.676Z,29.20
2017-12-12T05:42:23.111Z,28.60
2017-12-12T05:44:51.294Z,28.40
2017-12-12T05:47:18.721Z,28.20
2017-12-12T05:49:46.146Z,28.10
2017-12-12T05:52:13.572Z,28.10
2017-12-12T05:54:41.002Z,27.70
2017-12-12T05:57:09.214Z,27.90
2017-12-12T05:59:36.634Z,27.80
2017-12-12T06:02:04.072Z,27.20
2017-12-12T06:04:31.493Z,27.30
2017-12-12T06:06:58.933Z,27.30
2017-12-12T06:09:26.347Z,27.70
2017-12-12T06:11:53.790Z,28.30
2017-12-12T06:14:22.287Z,28.50
2017-12-12T06:16:49.721Z,27.90
2017-12-12T06:19:17.145Z,28.10
2017-12-12T06:21:44.606Z,28.30
2017-12-12T06:24:12.144Z,27.80
2017-12-12T06:26:39.567Z,27.90
2017-12-12T06:29:07.084Z,27.70
2017-12-12T06:31:34.786Z,28.10
2017-12-12T06:34:02.220Z,28.00
2017-12-12T06:36:29.760Z,27.50
2017-12-12T06:38:57.188Z,27.40
2017-12-12T06:41:24.610Z,27.60
2017-12-12T06:43:52.813Z,27.40
2017-12-12T06:46:20.372Z,27.40
2017-12-12T06:48:47.809Z,27.30
2017-12-12T06:51:15.992Z,27.40
2017-12-12T06:53:43.429Z,27.40
2017-12-12T06:56:10.858Z,27.00
2017-12-12T06:58:38.288Z,27.40
2017-12-12T07:01:05.856Z,27.90
2017-12-12T07:03:33.277Z,27.90
2017-12-12T07:06:00.772Z,27.80
2017-12-12T07:08:28.197Z,28.10
2017-12-12T07:10:55.633Z,28.50
2017-12-12T07:13:23.060Z,28.50
2017-12-12T07:15:50.605Z,28.90
2017-12-12T07:18:18.058Z,28.80
2017-12-12T07:20:45.504Z,29.00
2017-12-12T07:23:12.924Z,29.30
2017-12-12T07:25:40.371Z,29.40
2017-12-12T07:28:07.880Z,29.60
2017-12-12T07:30:35.336Z,29.80
2017-12-12T07:33:02.747Z,30.00
2017-12-12T07:35:30.168Z,29.90
2017-12-12T07:37:57.713Z,29.80
2017-12-12T07:40:25.128Z,29.90
2017-12-12T07:42:52.577Z,29.90
2017-12-12T07:45:20.001Z,30.00
2017-12-12T07:47:47.432Z,29.80
2017-12-12T07:50:14.992Z,29.90
2017-12-12T07:52:42.444Z,29.60
2017-12-12T07:55:09.860Z,29.60
2017-12-12T07:57:37.353Z,29.60
2017-12-12T08:00:04.777Z,29.40
2017-12-12T08:02:32.253Z,29.20
2017-12-12T08:04:59.681Z,28.70
2017-12-12T08:07:27.187Z,28.70
2017-12-12T08:09:54.621Z,28.50
2017-12-12T08:12:22.092Z,28.50
2017-12-12T08:14:49.548Z,28.50
2017-12-12T08:17:16.964Z,28.50
2017-12-12T08:19:44.406Z,28.50
2017-12-12T08:22:11.820Z,28.50
2017-12-12T08:24:39.257Z,27.50
2017-12-12T08:27:06.677Z,27.70
2017-12-12T08:29:34.877Z,27.80
2017-12-12T08:32:02.306Z,27.70
2017-12-12T08:34:29.729Z,27.70
2017-12-12T08:36:57.165Z,27.40
2017-12-12T08:39:24.593Z,26.90
2017-12-12T08:41:52.234Z,26.80
2017-12-12T08:44:19.587Z,26.60
2017-12-12T08:46:47.028Z,26.40
2017-12-12T08:49:14.453Z,25.60
2017-12-12T08:51:41.884Z,26.10
2017-12-12T08:54:09.312Z,25.80
2017-12-12T08:56:37.509Z,25.30
2017-12-12T08:59:04.936Z,25.30
2017-12-12T09:01:32.367Z,25.30
2017-12-12T09:03:59.790Z,25.40
2017-12-12T09:06:27.251Z,25.30
2017-12-12T09:08:54.672Z,25.30
2017-12-12T09:11:22.853Z,25.30
2017-12-12T09:13:50.297Z,25.10
2017-12-12T09:16:17.716Z,25.30
2017-12-12T09:18:45.149Z,25.70
2017-12-12T09:21:12.636Z,25.30
2017-12-12T09:23:40.075Z,25.60
2017-12-12T09:26:07.512Z,26.10
2017-12-12T09:28:34.988Z,26.00
2017-12-12T09:31:02.374Z,25.90
2017-12-12T09:33:30.797Z,25.70
2017-12-12T09:35:58.205Z,25.80
2017-12-12T09:38:25.631Z,26.10
2017-12-12T09:40:53.057Z,27.00
2017-12-12T09:43:20.484Z,25.90
2017-12-12T09:45:47.911Z,26.10
2017-12-12T09:48:15.343Z,26.40
2017-12-12T09:50:42.777Z,26.20
2017-12-12T09:53:10.195Z,25.70
2017-12-12T09:55:37.624Z,26.20
2017-12-12T09:58:05.057Z,25.90
2017-12-12T10:00:32.487Z,25.90
2017-12-12T10:03:00.669Z,26.20
2017-12-12T10:05:28.096Z,26.10
2017-12-12T10:07:55.608Z,25.80
2017-12-12T10:10:23.241Z,26.30
2017-12-12T10:12:50.669Z,26.40
2017-12-12T10:15:18.897Z,25.60
2017-12-12T10:17:46.324Z,25.60
2017-12-12T10:20:13.771Z,25.90
2017-12-12T10:22:41.200Z,26.30
2017-12-12T10:25:08.630Z,26.40
2017-12-12T10:27:36.120Z,25.70
2017-12-12T10:30:03.544Z,25.50
2017-12-12T10:32:31.008Z,25.50
2017-12-12T10:34:58.458Z,25.00
2017-12-12T10:37:25.901Z,25.40
2017-12-12T10:39:53.328Z,24.70
2017-12-12T10:42:20.765Z,24.20
2017-12-12T10:44:48.967Z,23.70
2017-12-12T10:47:16.408Z,23.70
2017-12-12T10:49:43.838Z,22.90
2017-12-12T10:52:11.279Z,23.50
2017-12-12T10:54:38.709Z,23.60
2017-12-12T10:57:06.136Z,22.80
2017-12-12T10:59:33.566Z,23.00
2017-12-12T11:02:01.773Z,22.80
2017-12-12T11:04:29.209Z,22.80
2017-12-12T11:06:56.640Z,21.90
2017-12-12T11:09:24.072Z,22.10
2017-12-12T11:11:51.512Z,23.00
2017-12-12T11:14:18.943Z,23.70
2017-12-12T11:16:46.369Z,23.50
2017-12-12T11:19:14.581Z,24.40
2017-12-12T11:21:42.009Z,23.90
2017-12-12T11:24:09.440Z,23.40
2017-12-12T11:26:36.874Z,23.40
2017-12-12T11:29:04.322Z,24.00
2017-12-12T11:31:31.744Z,23.60
2017-12-12T11:33:59.176Z,23.80
2017-12-12T11:36:27.369Z,24.20
2017-12-12T11:38:54.797Z,24.20
2017-12-12T11:41:22.236Z,24.30
2017-12-12T11:43:49.682Z,25.10
2017-12-12T11:46:17.103Z,24.80
2017-12-12T11:48:44.541Z,24.30
2017-12-12T11:51:12.769Z,25.20
2017-12-12T11:53:40.200Z,25.10
2017-12-12T11:56:07.629Z,25.20
2017-12-12T11:58:35.065Z,25.70
2017-12-12T12:01:02.487Z,26.00
2017-12-12T12:03:29.935Z,27.10
2017-12-12T12:05:57.351Z,27.90
2017-12-12T12:08:25.549Z,27.70
2017-12-12T12:10:52.975Z,27.70
2017-12-12T12:13:21.162Z,27.50
2017-12-12T12:15:48.601Z,27.40
2017-12-12T12:18:16.030Z,27.20
2017-12-12T12:20:43.472Z,26.50
2017-12-12T12:23:10.903Z,24.80
2017-12-12T12:25:38.336Z,23.40
2017-12-12T12:28:05.765Z,22.10
2017-12-12T12:30:33.205Z,24.10
2017-12-12T12:33:00.639Z,24.60
2017-12-12T12:35:28.103Z,24.80
2017-12-12T12:37:55.511Z,25.70
2017-12-12T12:40:23.703Z,20.60
2017-12-12T12:42:51.133Z,20.50
2017-12-12T12:45:18.581Z,21.80
2017-12-12T12:47:46.009Z,21.70
2017-12-12T12:50:13.545Z,22.30
2017-12-12T12:52:40.996Z,22.10
2017-12-12T12:55:08.422Z,21.90
2017-12-12T12:57:35.853Z,22.00
2017-12-12T13:00:03.289Z,22.40
2017-12-12T13:02:30.719Z,22.60
2017-12-12T13:04:58.151Z,22.80
2017-12-12T13:07:26.363Z,22.70
2017-12-12T13:09:53.780Z,22.70
2017-12-12T13:12:21.216Z,22.30
2017-12-12T13:14:48.657Z,21.40
2017-12-12T13:17:16.095Z,20.90
2017-12-12T13:19:43.525Z,21.20
2017-12-12T13:22:10.961Z,21.20
2017-12-12T13:24:38.383Z,18.10
2017-12-12T13:27:05.844Z,18.40
2017-12-12T13:29:33.433Z,17.50
2017-12-12T13:32:00.848Z,17.60
2017-12-12T13:34:28.313Z,16.10
2017-12-12T13:36:55.745Z,16.30
2017-12-12T13:39:23.190Z,16.60
2017-12-12T13:41:51.676Z,17.10
2017-12-12T13:44:19.134Z,17.80
2017-12-12T13:46:46.772Z,18.00
2017-12-12T13:49:14.361Z,17.70
2017-12-12T13:51:41.921Z,17.40
2017-12-12T13:54:10.174Z,18.20
2017-12-12T13:56:37.644Z,18.10
2017-12-12T13:59:05.072Z,18.10
2017-12-12T14:01:32.498Z,18.10
2017-12-12T14:04:02.106Z,18.10
2017-12-12T14:06:29.859Z,18.90
2017-12-12T14:08:57.320Z,17.60
2017-12-12T14:11:24.753Z,18.10
2017-12-12T14:13:52.192Z,18.50
2017-12-12T14:16:19.618Z,18.50
2017-12-12T14:18:47.832Z,18.60
2017-12-12T14:21:15.330Z,19.10
2017-12-12T14:23:42.772Z,18.70
2017-12-12T14:26:10.593Z,19.00
2017-12-12T14:28:38.046Z,18.10
2017-12-12T14:31:05.497Z,18.10
2017-12-12T14:33:32.916Z,18.10
2017-12-12T14:36:00.380Z,18.20
2017-12-12T14:38:29.956Z,18.40
2017-12-12T14:40:57.384Z,18.50
2017-12-12T14:43:24.820Z,18.20
2017-12-12T14:45:52.252Z,18.00
2017-12-12T14:48:19.668Z,17.80
2017-12-12T14:50:47.143Z,18.10
2017-12-12T14:53:14.565Z,18.30
2017-12-12T14:55:42.009Z,18.80
2017-12-12T14:58:09.440Z,19.00
2017-12-12T15:00:37.638Z,18.00
2017-12-12T15:03:05.084Z,17.90
2017-12-12T15:05:32.500Z,19.00
2017-12-12T15:07:59.941Z,17.90
2017-12-12T15:10:27.377Z,18.10
2017-12-12T15:12:54.817Z,19.00
2017-12-12T15:15:22.248Z,19.40
2017-12-12T15:17:50.471Z,19.50
2017-12-12T15:20:18.054Z,19.50
2017-12-12T15:22:46.333Z,20.00
2017-12-12T15:25:13.741Z,20.40
2017-12-12T15:27:41.186Z,20.50
2017-12-12T15:30:08.605Z,20.40
2017-12-12T15:32:36.041Z,20.60
2017-12-12T15:35:03.466Z,20.80
2017-12-12T15:37:30.902Z,20.60
2017-12-12T15:39:58.328Z,21.00
2017-12-12T15:42:26.533Z,21.40
2017-12-12T15:44:53.956Z,21.40
2017-12-12T15:47:21.399Z,21.60
2017-12-12T15:49:48.932Z,21.70
2017-12-12T15:52:16.385Z,21.70
2017-12-12T15:54:43.812Z,21.80
2017-12-12T15:57:11.231Z,22.00
2017-12-12T15:59:39.455Z,22.40
2017-12-12T16:02:06.880Z,22.00
2017-12-12T16:04:34.320Z,22.10
2017-12-12T16:07:01.744Z,22.20
2017-12-12T16:09:29.188Z,22.40
2017-12-12T16:11:56.624Z,22.50
2017-12-12T16:14:24.056Z,22.70
2017-12-12T16:16:51.542Z,22.90
2017-12-12T16:19:18.961Z,23.10
2017-12-12T16:21:46.375Z,23.20
2017-12-12T16:24:13.817Z,23.50
2017-12-12T16:26:41.254Z,23.70
2017-12-12T16:29:08.684Z,23.80
2017-12-12T16:31:36.883Z,24.40
2017-12-12T16:34:04.327Z,24.30
2017-12-12T16:36:31.773Z,24.70
2017-12-12T16:38:59.285Z,24.70
2017-12-12T16:41:26.728Z,24.70
2017-12-12T16:43:54.157Z,25.00
2017-12-12T16:46:21.589Z,25.10
2017-12-12T16:48:49.010Z,25.30
2017-12-12T16:51:16.490Z,25.40
2017-12-12T16:53:43.905Z,25.30
2017-12-12T16:56:11.345Z,25.50
2017-12-12T16:58:38.770Z,25.70
2017-12-12T17:01:06.974Z,25.80
2017-12-12T17:03:34.404Z,26.20
2017-12-12T17:06:01.824Z,26.20
2017-12-12T17:08:29.251Z,26.30
2017-12-12T17:10:56.689Z,26.30
2017-12-12T17:13:24.120Z,26.40
2017-12-12T17:15:51.543Z,27.00
2017-12-12T17:18:18.973Z,26.60
2017-12-12T17:20:46.387Z,26.80
2017-12-12T17:23:13.840Z,27.00
2017-12-12T17:25:41.259Z,27.40
2017-12-12T17:28:08.690Z,27.70
2017-12-12T17:30:36.104Z,27.80
2017-12-12T17:33:03.542Z,27.90
2017-12-12T17:35:31.076Z,28.10
2017-12-12T17:37:58.556Z,28.20
2017-12-12T17:40:25.996Z,28.40
2017-12-12T17:42:53.416Z,28.70
2017-12-12T17:45:20.845Z,28.80
2017-12-12T17:47:48.360Z,29.30
2017-12-12T17:50:15.794Z,29.50
2017-12-12T17:52:43.204Z,29.60
2017-12-12T17:55:10.637Z,29.70
2017-12-12T17:57:38.065Z,29.90
2017-12-12T18:00:05.501Z,29.90
2017-12-12T18:02:34.945Z,29.90
2017-12-12T18:05:02.377Z,29.80
2017-12-12T18:07:30.054Z,29.90
2017-12-12T18:09:57.572Z,29.90
2017-12-12T18:12:24.986Z,29.90
2017-12-12T18:14:52.421Z,30.00
2017-12-12T18:17:21.580Z,30.00
2017-12-12T18:19:49.079Z,30.20
2017-12-12T18:22:17.327Z,30.90
2017-12-12T18:24:44.816Z,30.80
2017-12-12T18:27:12.266Z,31.00
2017-12-12T18:29:39.685Z,31.20
2017-12-12T18:32:07.119Z,31.20
2017-12-12T18:34:34.641Z,31.20
2017-12-12T18:37:02.071Z,31.50
2017-12-12T18:39:29.548Z,31.30
2017-12-12T18:41:56.980Z,31.60
2017-12-12T18:44:24.441Z,31.50
2017-12-12T18:46:51.940Z,31.70
2017-12-12T18:49:19.553Z,31.80
2017-12-12T18:51:47.751Z,32.10
2017-12-12T18:54:15.181Z,32.00
2017-12-12T18:56:42.621Z,32.20
2017-12-12T18:59:10.060Z,32.30
2017-12-12T19:01:38.418Z,32.50
2017-12-12T19:04:05.845Z,32.50
2017-12-12T19:06:33.416Z,32.90
2017-12-12T19:09:00.866Z,33.00
2017-12-12T19:11:28.582Z,33.80
2017-12-12T19:13:56.004Z,34.10
2017-12-12T19:16:23.541Z,34.60
2017-12-12T19:18:50.973Z,35.10
2017-12-12T19:21:18.395Z,35.30
2017-12-12T19:23:45.916Z,35.20
2017-12-12T19:26:13.352Z,35.40
2017-12-12T19:28:40.834Z,35.60
2017-12-12T19:31:08.278Z,35.60
2017-12-12T19:33:35.689Z,35.20
2017-12-12T19:36:03.197Z,35.20
2017-12-12T19:38:30.626Z,35.20
2017-12-12T19:40:58.055Z,35.20
2017-12-12T19:43:26.697Z,35.20
2017-12-12T19:45:56.689Z,35.20
2017-12-12T19:48:24.095Z,35.20
2017-12-12T19:50:51.610Z,35.50
2017-12-12T19:53:19.029Z,36.00
2017-12-12T19:55:46.521Z,36.30
2017-12-12T19:58:13.888Z,36.50
2017-12-12T20:00:41.389Z,36.40
2017-12-12T20:03:08.811Z,36.40
2017-12-12T20:05:36.242Z,36.50
2017-12-12T20:10:59.974Z,39.10
2017-12-12T20:13:28.527Z,39.10
2017-12-12T20:15:55.952Z,39.50
2017-12-12T20:18:23.389Z,39.60
2017-12-12T20:20:53.219Z,41.30
2017-12-12T20:23:20.836Z,41.30
2017-12-12T20:25:48.603Z,41.60
2017-12-12T20:28:16.076Z,42.10
2017-12-12T20:30:43.467Z,42.40
2017-12-12T20:33:10.900Z,42.30
2017-12-12T20:35:38.316Z,42.40
2017-12-12T20:38:05.749Z,42.70
2017-12-12T20:40:33.178Z,43.00
2017-12-12T20:43:00.621Z,43.10
2017-12-12T20:45:28.043Z,43.00
2017-12-12T20:47:55.476Z,42.90
2017-12-12T20:50:22.912Z,43.00
2017-12-12T20:52:50.344Z,43.10
2017-12-12T20:55:17.775Z,43.30
2017-12-12T20:57:45.200Z,43.20
2017-12-12T21:00:12.624Z,42.80
2017-12-12T21:02:40.053Z,43.00
2017-12-12T21:05:08.244Z,42.70
2017-12-12T21:07:36.435Z,42.70
2017-12-12T21:10:03.860Z,42.90
2017-12-12T21:12:31.298Z,42.90
2017-12-12T21:14:58.718Z,42.80
2017-12-12T21:17:26.153Z,42.60
2017-12-12T21:19:53.787Z,42.70
2017-12-12T21:22:21.981Z,42.80
2017-12-12T21:24:49.396Z,43.50
2017-12-12T21:27:16.914Z,42.60
2017-12-12T21:29:44.363Z,42.50
2017-12-12T21:32:11.797Z,42.30
2017-12-12T21:34:39.215Z,42.00
2017-12-12T21:37:07.656Z,41.80
2017-12-12T21:39:35.072Z,41.80
2017-12-12T21:42:02.504Z,41.70
2017-12-12T21:44:29.924Z,41.40
2017-12-12T21:46:57.387Z,41.20
2017-12-12T21:49:24.932Z,41.00
2017-12-12T21:51:52.356Z,41.10
2017-12-12T21:54:19.772Z,42.00
2017-12-12T21:56:47.211Z,41.60
2017-12-12T21:59:14.673Z,42.20
2017-12-12T22:01:42.103Z,42.80
2017-12-12T22:04:09.583Z,43.50
2017-12-12T22:06:37.142Z,44.10
2017-12-12T22:09:04.581Z,44.60
2017-12-12T22:11:32.039Z,44.90
2017-12-12T22:13:59.456Z,45.30
2017-12-12T22:16:26.912Z,45.50
2017-12-12T22:18:54.329Z,45.70
2017-12-12T22:21:21.788Z,45.80
2017-12-12T22:23:49.328Z,45.90
2017-12-12T22:26:16.780Z,46.30
2017-12-12T22:28:44.233Z,46.40
2017-12-12T22:31:11.638Z,47.00
2017-12-12T22:33:40.071Z,47.80
2017-12-12T22:36:07.493Z,47.70
2017-12-12T22:38:34.984Z,47.90
2017-12-12T22:41:02.403Z,48.00
2017-12-12T22:43:29.898Z,48.20
2017-12-12T22:45:57.355Z,48.20
2017-12-12T22:48:24.776Z,48.30
2017-12-12T22:50:52.259Z,48.30
2017-12-12T22:53:19.684Z,48.00
2017-12-12T22:55:47.105Z,47.70
2017-12-12T22:58:15.571Z,46.40
2017-12-12T23:00:43.015Z,46.90
2017-12-12T23:03:10.472Z,46.90
2017-12-12T23:05:37.886Z,46.70
2017-12-12T23:08:05.384Z,46.60
2017-12-12T23:10:32.837Z,46.30
2017-12-12T23:13:00.266Z,46.20
2017-12-12T23:15:27.702Z,46.00
2017-12-12T23:17:55.204Z,46.10
2017-12-12T23:20:22.641Z,46.10
2017-12-12T23:22:50.070Z,45.80
2017-12-12T23:25:17.476Z,45.70
2017-12-12T23:27:45.028Z,45.40
2017-12-12T23:30:12.479Z,45.10
2017-12-12T23:32:39.958Z,44.90
2017-12-12T23:35:07.397Z,45.00
2017-12-12T23:37:34.824Z,45.00
2017-12-12T23:40:02.251Z,45.10
2017-12-12T23:42:29.677Z,45.30
2017-12-12T23:44:57.101Z,45.60
2017-12-12T23:47:25.291Z,46.00
2017-12-12T23:49:52.707Z,45.90
2017-12-12T23:52:20.899Z,46.40
2017-12-12T23:54:48.517Z,46.40
2017-12-12T23:57:16.952Z,46.60
2017-12-12T23:59:44.363Z,46.70
